Airfield :







YOU CAN JOIN US ON...

 
LOGIN :

Register | Disclaimer

   EN    FR    IT 

 









Legend :    VFR   Marginal VFR   IFR   Intensive IFR   Very Intensive IFR
Visi :
Ceiling :
>= 8 km
>= 3000ft
5 to 8 km
1000 to 3000 ft
1500m to 5 km
500 to 1000 ft
800 to 1500m
200 to 500 ft
< 800m
< 200 ft
Symbols :   Thunderstorms  Fog  Heavy snow  Heavy precipitations  Wind > 20 kt






- Airport Elevation : 203 ft
- IATA code : YQY


CYQY - Sydney

CURRENT METAR :
  • 090400Z 17020G31KT 4SM -DZ BR OVC008 04/03 A2927 RMK ST8 SLP917

EXPIRED METARs :
  • 090346Z 17018G24KT 4SM -DZ BR OVC008 04/04 A2929 RMK ST8 SLP921
  • 090300Z 17019G27KT 2SM -DZ BR OVC004 05/04 A2932 RMK ST8 SLP931
  • 090221Z 15019G27KT 2SM -DZ BR OVC004 06/06 A2933 RMK ST8 SLP935
  • 090200Z 13016KT 1 1/2SM -DZ BR BKN002 OVC004 06/06 A2934 RMK ST5ST3 SLP940

TAF TAF CYQY
Valid from the 09 at 00:00 until the 09 at 12:00 UTC


082341Z 0900/0912 09020G35KT 11/2SM -RA -DZ BR OVC003
TEMPO 0900/0909 4SM BR OVC006
BECMG 0900/0902 17025G35KT
FM090900 20020G30KT 2SM -SHRA -DZ BR OVC006
TEMPO 0909/0911 P6SM NSW OVC012
BECMG 0909/0911 25015G30KT
FM091100 25015G30KT P6SM OVC015
TEMPO 0911/0912 5SM -SHRA BR BKN008 OVC015 RMK NXT FCST BY 090600Z
CZQM FIR / North America



MET'MAP, your aeronautical weather chart ! - Copyright ORBIFLY December 2007 - Disclaimer

ORBIFLY MET'MAP TEAM :

Programming & Development : Alexandra Zaïnal
Concept & original design : Baudouin d'Aumeries
Assistance for programming : Marc-Olivier Méhu
Technical & hardware support : Manuel Goepfert

Contact : metmap@orbifly.com




SOURCES & CREDITS :

   NOAA